sensor_id;sensor_type;location;lat;lon;timestamp;P1;durP1;ratioP1;P2;durP2;ratioP2
75718;SDS011;64340;48.534;-3.036;2023-03-01T00:02:03;2.95;;;1.20;;
75718;SDS011;64340;48.534;-3.036;2023-03-01T00:04:30;2.10;;;1.20;;
75718;SDS011;64340;48.534;-3.036;2023-03-01T00:06:56;2.20;;;1.30;;
75718;SDS011;64340;48.534;-3.036;2023-03-01T00:09:22;2.78;;;1.38;;
75718;SDS011;64340;48.534;-3.036;2023-03-01T00:11:48;2.25;;;1.23;;
75718;SDS011;64340;48.534;-3.036;2023-03-01T00:14:14;2.60;;;1.60;;
75718;SDS011;64340;48.534;-3.036;2023-03-01T00:16:42;4.43;;;1.80;;
75718;SDS011;64340;48.534;-3.036;2023-03-01T00:19:09;3.22;;;1.77;;
75718;SDS011;64340;48.534;-3.036;2023-03-01T00:24:04;2.72;;;1.75;;
75718;SDS011;64340;48.534;-3.036;2023-03-01T00:26:30;3.72;;;1.90;;
75718;SDS011;64340;48.534;-3.036;2023-03-01T00:28:56;3.17;;;1.88;;
75718;SDS011;64340;48.534;-3.036;2023-03-01T00:31:24;3.55;;;2.42;;
75718;SDS011;64340;48.534;-3.036;2023-03-01T00:33:53;3.70;;;1.90;;
75718;SDS011;64340;48.534;-3.036;2023-03-01T00:36:22;4.05;;;2.22;;
75718;SDS011;64340;48.534;-3.036;2023-03-01T00:38:53;3.70;;;2.33;;
75718;SDS011;64340;48.534;-3.036;2023-03-01T00:41:20;3.28;;;2.13;;
75718;SDS011;64340;48.534;-3.036;2023-03-01T00:43:51;4.13;;;2.50;;
75718;SDS011;64340;48.534;-3.036;2023-03-01T00:46:19;4.15;;;2.53;;
75718;SDS011;64340;48.534;-3.036;2023-03-01T00:48:46;5.35;;;2.80;;
75718;SDS011;64340;48.534;-3.036;2023-03-01T00:51:13;3.40;;;2.50;;
75718;SDS011;64340;48.534;-3.036;2023-03-01T00:53:44;4.10;;;2.72;;
75718;SDS011;64340;48.534;-3.036;2023-03-01T00:56:11;3.83;;;2.85;;
75718;SDS011;64340;48.534;-3.036;2023-03-01T00:58:39;5.07;;;2.78;;
75718;SDS011;64340;48.534;-3.036;2023-03-01T01:01:12;3.83;;;2.88;;
75718;SDS011;64340;48.534;-3.036;2023-03-01T01:03:45;4.05;;;2.92;;
75718;SDS011;64340;48.534;-3.036;2023-03-01T01:06:21;4.80;;;3.22;;
75718;SDS011;64340;48.534;-3.036;2023-03-01T01:11:15;3.92;;;2.97;;
75718;SDS011;64340;48.534;-3.036;2023-03-01T01:13:43;4.93;;;3.50;;
75718;SDS011;64340;48.534;-3.036;2023-03-01T01:16:10;4.60;;;3.45;;
75718;SDS011;64340;48.534;-3.036;2023-03-01T01:18:35;4.53;;;2.90;;
75718;SDS011;64340;48.534;-3.036;2023-03-01T01:21:08;5.70;;;3.42;;
75718;SDS011;64340;48.534;-3.036;2023-03-01T01:26:06;4.40;;;3.00;;
75718;SDS011;64340;48.534;-3.036;2023-03-01T01:28:34;5.40;;;3.33;;
75718;SDS011;64340;48.534;-3.036;2023-03-01T01:31:00;5.18;;;3.53;;
75718;SDS011;64340;48.534;-3.036;2023-03-01T01:33:26;4.72;;;3.53;;
75718;SDS011;64340;48.534;-3.036;2023-03-01T01:35:52;4.38;;;3.35;;
75718;SDS011;64340;48.534;-3.036;2023-03-01T01:38:19;5.38;;;3.42;;
75718;SDS011;64340;48.534;-3.036;2023-03-01T01:40:45;5.13;;;3.67;;
75718;SDS011;64340;48.534;-3.036;2023-03-01T01:43:31;5.38;;;3.92;;
75718;SDS011;64340;48.534;-3.036;2023-03-01T01:46:02;4.63;;;3.20;;
75718;SDS011;64340;48.534;-3.036;2023-03-01T01:48:52;4.80;;;3.55;;
75718;SDS011;64340;48.534;-3.036;2023-03-01T01:51:25;5.75;;;3.90;;
75718;SDS011;64340;48.534;-3.036;2023-03-01T01:54:03;4.75;;;3.40;;
75718;SDS011;64340;48.534;-3.036;2023-03-01T01:56:34;6.30;;;3.42;;
75718;SDS011;64340;48.534;-3.036;2023-03-01T01:59:01;4.93;;;3.45;;
75718;SDS011;64340;48.534;-3.036;2023-03-01T02:01:27;4.50;;;3.38;;
75718;SDS011;64340;48.534;-3.036;2023-03-01T02:03:53;4.60;;;3.65;;
75718;SDS011;64340;48.534;-3.036;2023-03-01T02:06:21;4.65;;;3.80;;
75718;SDS011;64340;48.534;-3.036;2023-03-01T02:08:57;5.35;;;3.78;;
75718;SDS011;64340;48.534;-3.036;2023-03-01T02:11:30;4.60;;;3.60;;
75718;SDS011;64340;48.534;-3.036;2023-03-01T02:13:57;5.38;;;3.67;;
75718;SDS011;64340;48.534;-3.036;2023-03-01T02:16:23;4.25;;;3.35;;
75718;SDS011;64340;48.534;-3.036;2023-03-01T02:18:51;4.30;;;3.42;;
75718;SDS011;64340;48.534;-3.036;2023-03-01T02:23:44;6.10;;;4.10;;
75718;SDS011;64340;48.534;-3.036;2023-03-01T02:29:03;5.28;;;3.80;;
75718;SDS011;64340;48.534;-3.036;2023-03-01T02:31:30;5.22;;;3.53;;
75718;SDS011;64340;48.534;-3.036;2023-03-01T02:34:16;5.15;;;4.05;;
75718;SDS011;64340;48.534;-3.036;2023-03-01T02:36:45;5.03;;;3.70;;
75718;SDS011;64340;48.534;-3.036;2023-03-01T02:41:45;4.85;;;3.75;;
75718;SDS011;64340;48.534;-3.036;2023-03-01T02:44:14;4.50;;;3.60;;
75718;SDS011;64340;48.534;-3.036;2023-03-01T02:46:44;4.30;;;3.28;;
75718;SDS011;64340;48.534;-3.036;2023-03-01T02:49:22;3.80;;;3.40;;
75718;SDS011;64340;48.534;-3.036;2023-03-01T02:54:40;4.95;;;3.83;;
75718;SDS011;64340;48.534;-3.036;2023-03-01T02:57:12;4.78;;;3.88;;
75718;SDS011;64340;48.534;-3.036;2023-03-01T02:59:39;4.82;;;3.42;;
75718;SDS011;64340;48.534;-3.036;2023-03-01T03:02:08;4.43;;;3.53;;
75718;SDS011;64340;48.534;-3.036;2023-03-01T03:04:46;3.95;;;3.30;;
75718;SDS011;64340;48.534;-3.036;2023-03-01T03:07:12;4.82;;;3.58;;
75718;SDS011;64340;48.534;-3.036;2023-03-01T03:09:37;5.93;;;4.05;;
75718;SDS011;64340;48.534;-3.036;2023-03-01T03:12:03;4.32;;;3.63;;
75718;SDS011;64340;48.534;-3.036;2023-03-01T03:14:29;4.57;;;3.65;;
75718;SDS011;64340;48.534;-3.036;2023-03-01T03:16:59;4.55;;;3.83;;
75718;SDS011;64340;48.534;-3.036;2023-03-01T03:19:25;5.13;;;3.58;;
75718;SDS011;64340;48.534;-3.036;2023-03-01T03:21:51;4.80;;;4.10;;
75718;SDS011;64340;48.534;-3.036;2023-03-01T03:24:17;4.65;;;3.78;;
75718;SDS011;64340;48.534;-3.036;2023-03-01T03:26:43;5.05;;;3.92;;
75718;SDS011;64340;48.534;-3.036;2023-03-01T03:29:09;4.95;;;3.97;;
75718;SDS011;64340;48.534;-3.036;2023-03-01T03:31:34;5.20;;;3.70;;
75718;SDS011;64340;48.534;-3.036;2023-03-01T03:34:00;4.68;;;3.97;;
75718;SDS011;64340;48.534;-3.036;2023-03-01T03:36:26;4.93;;;3.85;;
75718;SDS011;64340;48.534;-3.036;2023-03-01T03:38:52;5.88;;;4.07;;
75718;SDS011;64340;48.534;-3.036;2023-03-01T03:41:17;6.43;;;3.70;;
75718;SDS011;64340;48.534;-3.036;2023-03-01T03:43:43;5.60;;;4.13;;
75718;SDS011;64340;48.534;-3.036;2023-03-01T03:46:10;4.60;;;3.78;;
75718;SDS011;64340;48.534;-3.036;2023-03-01T03:48:37;4.85;;;4.10;;
75718;SDS011;64340;48.534;-3.036;2023-03-01T03:51:05;5.60;;;3.75;;
75718;SDS011;64340;48.534;-3.036;2023-03-01T03:53:32;5.40;;;3.83;;
75718;SDS011;64340;48.534;-3.036;2023-03-01T03:55:58;5.78;;;4.10;;
75718;SDS011;64340;48.534;-3.036;2023-03-01T03:58:24;5.18;;;4.20;;
75718;SDS011;64340;48.534;-3.036;2023-03-01T04:00:55;5.10;;;4.07;;
75718;SDS011;64340;48.534;-3.036;2023-03-01T04:03:22;4.97;;;3.67;;
75718;SDS011;64340;48.534;-3.036;2023-03-01T04:05:49;5.85;;;3.90;;
75718;SDS011;64340;48.534;-3.036;2023-03-01T04:08:16;4.40;;;3.70;;
75718;SDS011;64340;48.534;-3.036;2023-03-01T04:10:46;4.95;;;3.97;;
75718;SDS011;64340;48.534;-3.036;2023-03-01T04:13:15;5.00;;;4.03;;
75718;SDS011;64340;48.534;-3.036;2023-03-01T04:15:45;5.35;;;4.18;;
75718;SDS011;64340;48.534;-3.036;2023-03-01T04:18:13;4.82;;;4.13;;
75718;SDS011;64340;48.534;-3.036;2023-03-01T04:20:41;5.03;;;4.00;;
75718;SDS011;64340;48.534;-3.036;2023-03-01T04:23:09;5.55;;;4.13;;
75718;SDS011;64340;48.534;-3.036;2023-03-01T04:25:56;4.72;;;3.75;;
75718;SDS011;64340;48.534;-3.036;2023-03-01T04:30:50;5.18;;;4.03;;
75718;SDS011;64340;48.534;-3.036;2023-03-01T04:33:16;4.50;;;3.65;;
75718;SDS011;64340;48.534;-3.036;2023-03-01T04:35:42;5.40;;;4.28;;
75718;SDS011;64340;48.534;-3.036;2023-03-01T04:38:08;5.95;;;4.00;;
75718;SDS011;64340;48.534;-3.036;2023-03-01T04:40:34;5.53;;;4.00;;
75718;SDS011;64340;48.534;-3.036;2023-03-01T04:43:01;4.53;;;4.00;;
75718;SDS011;64340;48.534;-3.036;2023-03-01T04:45:27;5.80;;;4.13;;
75718;SDS011;64340;48.534;-3.036;2023-03-01T04:47:53;5.70;;;3.63;;
75718;SDS011;64340;48.534;-3.036;2023-03-01T04:50:19;4.50;;;3.78;;
75718;SDS011;64340;48.534;-3.036;2023-03-01T04:52:46;5.55;;;3.97;;
75718;SDS011;64340;48.534;-3.036;2023-03-01T04:55:12;5.28;;;4.10;;
75718;SDS011;64340;48.534;-3.036;2023-03-01T04:57:39;5.97;;;4.63;;
75718;SDS011;64340;48.534;-3.036;2023-03-01T05:00:06;5.30;;;4.35;;
75718;SDS011;64340;48.534;-3.036;2023-03-01T05:02:52;5.78;;;4.43;;
75718;SDS011;64340;48.534;-3.036;2023-03-01T05:05:23;5.43;;;4.13;;
75718;SDS011;64340;48.534;-3.036;2023-03-01T05:07:52;5.07;;;3.65;;
75718;SDS011;64340;48.534;-3.036;2023-03-01T05:10:21;5.03;;;4.35;;
75718;SDS011;64340;48.534;-3.036;2023-03-01T05:12:48;5.63;;;3.90;;
75718;SDS011;64340;48.534;-3.036;2023-03-01T05:15:14;4.93;;;4.30;;
75718;SDS011;64340;48.534;-3.036;2023-03-01T05:17:40;5.47;;;4.00;;
75718;SDS011;64340;48.534;-3.036;2023-03-01T05:20:06;6.00;;;4.35;;
75718;SDS011;64340;48.534;-3.036;2023-03-01T05:22:34;4.80;;;4.07;;
75718;SDS011;64340;48.534;-3.036;2023-03-01T05:25:00;6.13;;;4.60;;
75718;SDS011;64340;48.534;-3.036;2023-03-01T05:27:26;4.75;;;4.00;;
75718;SDS011;64340;48.534;-3.036;2023-03-01T05:29:52;6.05;;;4.47;;
75718;SDS011;64340;48.534;-3.036;2023-03-01T05:32:18;5.20;;;4.07;;
75718;SDS011;64340;48.534;-3.036;2023-03-01T05:34:43;4.90;;;4.03;;
75718;SDS011;64340;48.534;-3.036;2023-03-01T05:37:11;5.32;;;4.25;;
75718;SDS011;64340;48.534;-3.036;2023-03-01T05:39:39;5.82;;;4.68;;
75718;SDS011;64340;48.534;-3.036;2023-03-01T05:42:09;5.30;;;4.13;;
75718;SDS011;64340;48.534;-3.036;2023-03-01T05:47:01;5.68;;;4.65;;
75718;SDS011;64340;48.534;-3.036;2023-03-01T05:49:27;8.73;;;4.85;;
75718;SDS011;64340;48.534;-3.036;2023-03-01T05:51:53;8.65;;;4.85;;
75718;SDS011;64340;48.534;-3.036;2023-03-01T05:54:20;7.38;;;4.90;;
75718;SDS011;64340;48.534;-3.036;2023-03-01T05:56:46;7.15;;;5.10;;
75718;SDS011;64340;48.534;-3.036;2023-03-01T05:59:12;6.63;;;4.68;;
75718;SDS011;64340;48.534;-3.036;2023-03-01T06:01:40;7.28;;;5.22;;
75718;SDS011;64340;48.534;-3.036;2023-03-01T06:04:06;6.90;;;5.22;;
75718;SDS011;64340;48.534;-3.036;2023-03-01T06:06:35;7.88;;;4.80;;
75718;SDS011;64340;48.534;-3.036;2023-03-01T06:09:02;8.70;;;4.80;;
75718;SDS011;64340;48.534;-3.036;2023-03-01T06:11:29;8.75;;;4.70;;
75718;SDS011;64340;48.534;-3.036;2023-03-01T06:13:55;6.90;;;4.70;;
75718;SDS011;64340;48.534;-3.036;2023-03-01T06:16:20;9.65;;;5.25;;
75718;SDS011;64340;48.534;-3.036;2023-03-01T06:18:46;7.13;;;4.72;;
75718;SDS011;64340;48.534;-3.036;2023-03-01T06:21:12;8.15;;;4.28;;
75718;SDS011;64340;48.534;-3.036;2023-03-01T06:23:38;6.88;;;4.25;;
75718;SDS011;64340;48.534;-3.036;2023-03-01T06:26:08;7.10;;;4.50;;
75718;SDS011;64340;48.534;-3.036;2023-03-01T06:28:34;8.23;;;4.68;;
75718;SDS011;64340;48.534;-3.036;2023-03-01T06:31:02;4.97;;;4.07;;
75718;SDS011;64340;48.534;-3.036;2023-03-01T06:33:28;9.20;;;4.40;;
75718;SDS011;64340;48.534;-3.036;2023-03-01T06:35:54;8.57;;;4.68;;
75718;SDS011;64340;48.534;-3.036;2023-03-01T06:38:21;7.78;;;4.70;;
75718;SDS011;64340;48.534;-3.036;2023-03-01T06:40:52;6.47;;;3.90;;
75718;SDS011;64340;48.534;-3.036;2023-03-01T06:43:20;14.52;;;5.13;;
75718;SDS011;64340;48.534;-3.036;2023-03-01T06:45:46;10.55;;;4.97;;
75718;SDS011;64340;48.534;-3.036;2023-03-01T06:48:11;11.98;;;5.15;;
75718;SDS011;64340;48.534;-3.036;2023-03-01T06:50:37;9.23;;;4.53;;
75718;SDS011;64340;48.534;-3.036;2023-03-01T06:53:03;11.38;;;4.90;;
75718;SDS011;64340;48.534;-3.036;2023-03-01T06:55:29;10.60;;;5.13;;
75718;SDS011;64340;48.534;-3.036;2023-03-01T06:57:56;16.33;;;6.00;;
75718;SDS011;64340;48.534;-3.036;2023-03-01T07:00:23;11.88;;;5.15;;
75718;SDS011;64340;48.534;-3.036;2023-03-01T07:02:50;12.23;;;5.18;;
75718;SDS011;64340;48.534;-3.036;2023-03-01T07:05:16;12.00;;;5.30;;
75718;SDS011;64340;48.534;-3.036;2023-03-01T07:07:42;11.18;;;4.75;;
75718;SDS011;64340;48.534;-3.036;2023-03-01T07:10:08;8.80;;;4.57;;
75718;SDS011;64340;48.534;-3.036;2023-03-01T07:12:34;11.88;;;5.60;;
75718;SDS011;64340;48.534;-3.036;2023-03-01T07:15:00;10.13;;;4.88;;
75718;SDS011;64340;48.534;-3.036;2023-03-01T07:17:26;8.43;;;5.35;;
75718;SDS011;64340;48.534;-3.036;2023-03-01T07:19:52;10.98;;;4.85;;
75718;SDS011;64340;48.534;-3.036;2023-03-01T07:22:19;10.57;;;5.20;;
75718;SDS011;64340;48.534;-3.036;2023-03-01T07:24:44;8.20;;;4.55;;
75718;SDS011;64340;48.534;-3.036;2023-03-01T07:27:10;8.43;;;5.30;;
75718;SDS011;64340;48.534;-3.036;2023-03-01T07:29:36;8.23;;;4.55;;
75718;SDS011;64340;48.534;-3.036;2023-03-01T07:32:02;8.48;;;4.82;;
75718;SDS011;64340;48.534;-3.036;2023-03-01T07:34:29;7.28;;;4.25;;
75718;SDS011;64340;48.534;-3.036;2023-03-01T07:36:54;9.73;;;4.63;;
75718;SDS011;64340;48.534;-3.036;2023-03-01T07:39:20;8.57;;;4.00;;
75718;SDS011;64340;48.534;-3.036;2023-03-01T07:41:48;8.70;;;4.38;;
75718;SDS011;64340;48.534;-3.036;2023-03-01T07:44:14;8.07;;;4.43;;
75718;SDS011;64340;48.534;-3.036;2023-03-01T07:46:41;9.18;;;4.82;;
75718;SDS011;64340;48.534;-3.036;2023-03-01T07:49:07;8.20;;;4.30;;
75718;SDS011;64340;48.534;-3.036;2023-03-01T07:51:33;7.70;;;4.07;;
75718;SDS011;64340;48.534;-3.036;2023-03-01T07:53:58;6.13;;;4.03;;
75718;SDS011;64340;48.534;-3.036;2023-03-01T07:56:24;8.80;;;4.38;;
75718;SDS011;64340;48.534;-3.036;2023-03-01T07:58:50;9.00;;;4.20;;
75718;SDS011;64340;48.534;-3.036;2023-03-01T08:01:17;8.13;;;4.10;;
75718;SDS011;64340;48.534;-3.036;2023-03-01T08:03:45;7.85;;;4.20;;
75718;SDS011;64340;48.534;-3.036;2023-03-01T08:06:11;7.47;;;4.03;;
75718;SDS011;64340;48.534;-3.036;2023-03-01T08:08:38;6.72;;;3.95;;
75718;SDS011;64340;48.534;-3.036;2023-03-01T08:11:06;6.75;;;4.32;;
75718;SDS011;64340;48.534;-3.036;2023-03-01T08:13:33;6.82;;;3.92;;
75718;SDS011;64340;48.534;-3.036;2023-03-01T08:16:06;8.60;;;4.10;;
75718;SDS011;64340;48.534;-3.036;2023-03-01T08:18:33;7.35;;;4.00;;
75718;SDS011;64340;48.534;-3.036;2023-03-01T08:21:06;7.43;;;4.40;;
75718;SDS011;64340;48.534;-3.036;2023-03-01T08:23:42;7.40;;;4.40;;
75718;SDS011;64340;48.534;-3.036;2023-03-01T08:26:09;5.18;;;3.58;;
75718;SDS011;64340;48.534;-3.036;2023-03-01T08:28:37;5.53;;;3.67;;
75718;SDS011;64340;48.534;-3.036;2023-03-01T08:31:13;7.03;;;3.63;;
75718;SDS011;64340;48.534;-3.036;2023-03-01T08:36:34;5.38;;;3.90;;
75718;SDS011;64340;48.534;-3.036;2023-03-01T08:39:02;7.07;;;3.92;;
75718;SDS011;64340;48.534;-3.036;2023-03-01T08:41:28;6.32;;;3.80;;
75718;SDS011;64340;48.534;-3.036;2023-03-01T08:43:54;7.80;;;4.55;;
75718;SDS011;64340;48.534;-3.036;2023-03-01T08:46:24;6.95;;;3.67;;
75718;SDS011;64340;48.534;-3.036;2023-03-01T08:48:57;7.85;;;4.05;;
75718;SDS011;64340;48.534;-3.036;2023-03-01T08:51:23;7.05;;;3.58;;
75718;SDS011;64340;48.534;-3.036;2023-03-01T08:53:50;7.00;;;3.55;;
75718;SDS011;64340;48.534;-3.036;2023-03-01T08:56:16;6.45;;;4.13;;
75718;SDS011;64340;48.534;-3.036;2023-03-01T08:58:47;6.38;;;4.20;;
75718;SDS011;64340;48.534;-3.036;2023-03-01T09:01:17;6.63;;;3.90;;
75718;SDS011;64340;48.534;-3.036;2023-03-01T09:03:44;6.32;;;3.97;;
75718;SDS011;64340;48.534;-3.036;2023-03-01T09:06:10;6.72;;;3.97;;
75718;SDS011;64340;48.534;-3.036;2023-03-01T09:08:40;6.15;;;3.70;;
75718;SDS011;64340;48.534;-3.036;2023-03-01T09:11:10;4.93;;;3.67;;
75718;SDS011;64340;48.534;-3.036;2023-03-01T09:13:38;5.43;;;3.70;;
75718;SDS011;64340;48.534;-3.036;2023-03-01T09:16:04;6.40;;;4.28;;
75718;SDS011;64340;48.534;-3.036;2023-03-01T09:18:32;8.20;;;4.18;;
75718;SDS011;64340;48.534;-3.036;2023-03-01T09:21:16;5.57;;;3.65;;
75718;SDS011;64340;48.534;-3.036;2023-03-01T09:23:44;6.65;;;3.97;;
75718;SDS011;64340;48.534;-3.036;2023-03-01T09:26:12;6.50;;;3.75;;
75718;SDS011;64340;48.534;-3.036;2023-03-01T09:28:41;6.75;;;3.97;;
75718;SDS011;64340;48.534;-3.036;2023-03-01T09:31:07;7.82;;;4.45;;
75718;SDS011;64340;48.534;-3.036;2023-03-01T09:33:33;6.13;;;4.10;;
75718;SDS011;64340;48.534;-3.036;2023-03-01T09:36:03;5.65;;;4.00;;
75718;SDS011;64340;48.534;-3.036;2023-03-01T09:38:31;5.78;;;4.18;;
75718;SDS011;64340;48.534;-3.036;2023-03-01T09:40:56;6.57;;;4.15;;
75718;SDS011;64340;48.534;-3.036;2023-03-01T09:46:08;8.65;;;4.35;;
75718;SDS011;64340;48.534;-3.036;2023-03-01T09:48:43;6.38;;;4.22;;
75718;SDS011;64340;48.534;-3.036;2023-03-01T09:51:32;6.80;;;4.15;;
75718;SDS011;64340;48.534;-3.036;2023-03-01T09:54:03;5.13;;;3.80;;
75718;SDS011;64340;48.534;-3.036;2023-03-01T10:01:46;6.90;;;4.47;;
75718;SDS011;64340;48.534;-3.036;2023-03-01T10:04:45;5.55;;;3.72;;
75718;SDS011;64340;48.534;-3.036;2023-03-01T10:09:51;5.93;;;4.30;;
75718;SDS011;64340;48.534;-3.036;2023-03-01T10:12:22;6.70;;;4.30;;
75718;SDS011;64340;48.534;-3.036;2023-03-01T10:14:53;6.65;;;4.70;;
75718;SDS011;64340;48.534;-3.036;2023-03-01T10:22:41;6.65;;;4.20;;
75718;SDS011;64340;48.534;-3.036;2023-03-01T10:25:12;6.55;;;4.40;;
75718;SDS011;64340;48.534;-3.036;2023-03-01T10:27:51;7.28;;;4.88;;
75718;SDS011;64340;48.534;-3.036;2023-03-01T10:32:59;7.10;;;4.45;;
75718;SDS011;64340;48.534;-3.036;2023-03-01T10:35:29;6.55;;;4.85;;
75718;SDS011;64340;48.534;-3.036;2023-03-01T10:38:05;6.47;;;4.65;;
75718;SDS011;64340;48.534;-3.036;2023-03-01T10:40:33;7.47;;;4.53;;
75718;SDS011;64340;48.534;-3.036;2023-03-01T10:43:01;6.95;;;4.43;;
75718;SDS011;64340;48.534;-3.036;2023-03-01T10:50:48;6.50;;;4.32;;
75718;SDS011;64340;48.534;-3.036;2023-03-01T10:55:58;7.22;;;4.57;;
75718;SDS011;64340;48.534;-3.036;2023-03-01T10:58:29;8.60;;;4.85;;
75718;SDS011;64340;48.534;-3.036;2023-03-01T11:03:30;6.13;;;4.32;;
75718;SDS011;64340;48.534;-3.036;2023-03-01T11:08:45;6.65;;;4.63;;
75718;SDS011;64340;48.534;-3.036;2023-03-01T11:16:48;8.60;;;5.25;;
75718;SDS011;64340;48.534;-3.036;2023-03-01T11:19:24;6.07;;;4.72;;
75718;SDS011;64340;48.534;-3.036;2023-03-01T11:24:46;7.15;;;4.90;;
75718;SDS011;64340;48.534;-3.036;2023-03-01T11:32:31;6.53;;;5.03;;
75718;SDS011;64340;48.534;-3.036;2023-03-01T11:35:20;7.10;;;4.72;;
75718;SDS011;64340;48.534;-3.036;2023-03-01T11:54:34;7.28;;;5.00;;
75718;SDS011;64340;48.534;-3.036;2023-03-01T12:00:03;6.40;;;5.07;;
75718;SDS011;64340;48.534;-3.036;2023-03-01T12:02:59;7.03;;;5.00;;
75718;SDS011;64340;48.534;-3.036;2023-03-01T12:08:41;7.28;;;4.70;;
75718;SDS011;64340;48.534;-3.036;2023-03-01T12:11:21;7.38;;;5.38;;
75718;SDS011;64340;48.534;-3.036;2023-03-01T12:14:36;7.57;;;4.90;;
75718;SDS011;64340;48.534;-3.036;2023-03-01T12:19:33;6.68;;;4.90;;
75718;SDS011;64340;48.534;-3.036;2023-03-01T12:22:32;7.60;;;4.88;;
75718;SDS011;64340;48.534;-3.036;2023-03-01T12:39:56;7.18;;;5.25;;
75718;SDS011;64340;48.534;-3.036;2023-03-01T12:48:45;6.78;;;4.72;;
75718;SDS011;64340;48.534;-3.036;2023-03-01T12:51:17;6.35;;;4.85;;
75718;SDS011;64340;48.534;-3.036;2023-03-01T12:53:51;5.63;;;4.78;;
75718;SDS011;64340;48.534;-3.036;2023-03-01T12:56:23;6.22;;;5.03;;
75718;SDS011;64340;48.534;-3.036;2023-03-01T15:46:51;6.40;;;4.53;;
75718;SDS011;64340;48.534;-3.036;2023-03-01T15:51:58;5.22;;;3.83;;
75718;SDS011;64340;48.534;-3.036;2023-03-01T15:54:24;4.40;;;3.85;;
75718;SDS011;64340;48.534;-3.036;2023-03-01T15:56:51;5.25;;;3.78;;
75718;SDS011;64340;48.534;-3.036;2023-03-01T15:59:17;4.63;;;3.53;;
75718;SDS011;64340;48.534;-3.036;2023-03-01T16:01:44;5.22;;;3.60;;
75718;SDS011;64340;48.534;-3.036;2023-03-01T16:04:14;5.82;;;3.88;;
75718;SDS011;64340;48.534;-3.036;2023-03-01T16:06:52;5.82;;;3.72;;
75718;SDS011;64340;48.534;-3.036;2023-03-01T16:09:24;4.82;;;3.63;;
75718;SDS011;64340;48.534;-3.036;2023-03-01T16:11:51;6.07;;;3.90;;
75718;SDS011;64340;48.534;-3.036;2023-03-01T16:14:18;6.28;;;3.80;;
75718;SDS011;64340;48.534;-3.036;2023-03-01T16:16:44;5.85;;;3.30;;
75718;SDS011;64340;48.534;-3.036;2023-03-01T16:19:11;5.85;;;3.30;;
75718;SDS011;64340;48.534;-3.036;2023-03-01T16:21:37;4.88;;;3.60;;
75718;SDS011;64340;48.534;-3.036;2023-03-01T16:24:03;5.40;;;3.72;;
75718;SDS011;64340;48.534;-3.036;2023-03-01T16:26:29;5.10;;;3.50;;
75718;SDS011;64340;48.534;-3.036;2023-03-01T16:28:55;6.75;;;3.70;;
75718;SDS011;64340;48.534;-3.036;2023-03-01T16:31:23;6.18;;;3.60;;
75718;SDS011;64340;48.534;-3.036;2023-03-01T16:33:54;4.88;;;3.15;;
75718;SDS011;64340;48.534;-3.036;2023-03-01T16:36:24;5.68;;;3.60;;
75718;SDS011;64340;48.534;-3.036;2023-03-01T16:38:54;4.63;;;3.03;;
75718;SDS011;64340;48.534;-3.036;2023-03-01T16:41:29;4.50;;;2.90;;
75718;SDS011;64340;48.534;-3.036;2023-03-01T16:43:57;5.43;;;3.60;;
75718;SDS011;64340;48.534;-3.036;2023-03-01T16:46:24;5.10;;;2.72;;
75718;SDS011;64340;48.534;-3.036;2023-03-01T16:48:54;7.28;;;3.33;;
75718;SDS011;64340;48.534;-3.036;2023-03-01T16:51:21;9.98;;;3.95;;
75718;SDS011;64340;48.534;-3.036;2023-03-01T16:53:48;5.22;;;3.72;;
75718;SDS011;64340;48.534;-3.036;2023-03-01T16:56:14;6.15;;;3.53;;
75718;SDS011;64340;48.534;-3.036;2023-03-01T16:58:41;8.02;;;3.40;;
75718;SDS011;64340;48.534;-3.036;2023-03-01T17:01:08;8.80;;;3.92;;
75718;SDS011;64340;48.534;-3.036;2023-03-01T17:03:39;7.15;;;3.55;;
75718;SDS011;64340;48.534;-3.036;2023-03-01T17:06:06;12.85;;;4.63;;
75718;SDS011;64340;48.534;-3.036;2023-03-01T17:08:34;12.80;;;4.65;;
75718;SDS011;64340;48.534;-3.036;2023-03-01T17:11:10;13.38;;;4.80;;
75718;SDS011;64340;48.534;-3.036;2023-03-01T17:13:39;14.32;;;5.47;;
75718;SDS011;64340;48.534;-3.036;2023-03-01T17:16:08;12.60;;;4.78;;
75718;SDS011;64340;48.534;-3.036;2023-03-01T17:18:36;13.55;;;5.20;;
75718;SDS011;64340;48.534;-3.036;2023-03-01T17:21:03;10.82;;;4.68;;
75718;SDS011;64340;48.534;-3.036;2023-03-01T17:23:31;9.35;;;4.03;;
75718;SDS011;64340;48.534;-3.036;2023-03-01T17:25:58;10.07;;;4.22;;
75718;SDS011;64340;48.534;-3.036;2023-03-01T17:28:25;8.45;;;4.03;;
75718;SDS011;64340;48.534;-3.036;2023-03-01T17:33:20;10.38;;;3.47;;
75718;SDS011;64340;48.534;-3.036;2023-03-01T17:35:46;7.90;;;3.78;;
75718;SDS011;64340;48.534;-3.036;2023-03-01T17:38:15;5.50;;;3.65;;
75718;SDS011;64340;48.534;-3.036;2023-03-01T17:40:41;8.77;;;4.47;;
75718;SDS011;64340;48.534;-3.036;2023-03-01T17:43:10;14.15;;;5.20;;
75718;SDS011;64340;48.534;-3.036;2023-03-01T17:45:36;8.18;;;4.40;;
75718;SDS011;64340;48.534;-3.036;2023-03-01T17:48:02;7.85;;;3.72;;
75718;SDS011;64340;48.534;-3.036;2023-03-01T17:50:29;10.00;;;4.50;;
75718;SDS011;64340;48.534;-3.036;2023-03-01T17:52:54;7.97;;;3.92;;
75718;SDS011;64340;48.534;-3.036;2023-03-01T17:55:21;9.27;;;3.72;;
75718;SDS011;64340;48.534;-3.036;2023-03-01T17:57:46;8.82;;;3.38;;
75718;SDS011;64340;48.534;-3.036;2023-03-01T18:00:13;9.05;;;4.25;;
75718;SDS011;64340;48.534;-3.036;2023-03-01T18:02:40;7.50;;;3.03;;
75718;SDS011;64340;48.534;-3.036;2023-03-01T18:05:06;9.13;;;3.42;;
75718;SDS011;64340;48.534;-3.036;2023-03-01T18:07:33;6.75;;;3.40;;
75718;SDS011;64340;48.534;-3.036;2023-03-01T18:09:59;7.20;;;3.60;;
75718;SDS011;64340;48.534;-3.036;2023-03-01T18:12:24;13.57;;;4.82;;
75718;SDS011;64340;48.534;-3.036;2023-03-01T18:14:50;16.08;;;4.80;;
75718;SDS011;64340;48.534;-3.036;2023-03-01T18:17:19;12.52;;;5.32;;
75718;SDS011;64340;48.534;-3.036;2023-03-01T18:19:46;16.33;;;5.70;;
75718;SDS011;64340;48.534;-3.036;2023-03-01T18:22:12;16.23;;;5.18;;
75718;SDS011;64340;48.534;-3.036;2023-03-01T18:24:38;15.60;;;5.43;;
75718;SDS011;64340;48.534;-3.036;2023-03-01T18:27:04;19.23;;;7.13;;
75718;SDS011;64340;48.534;-3.036;2023-03-01T18:29:31;14.82;;;5.60;;
75718;SDS011;64340;48.534;-3.036;2023-03-01T18:31:57;15.00;;;5.78;;
75718;SDS011;64340;48.534;-3.036;2023-03-01T18:34:23;17.30;;;5.55;;
75718;SDS011;64340;48.534;-3.036;2023-03-01T18:36:49;15.60;;;6.70;;
75718;SDS011;64340;48.534;-3.036;2023-03-01T18:39:20;15.38;;;6.25;;
75718;SDS011;64340;48.534;-3.036;2023-03-01T18:41:46;14.10;;;5.38;;
75718;SDS011;64340;48.534;-3.036;2023-03-01T18:44:12;16.42;;;5.80;;
75718;SDS011;64340;48.534;-3.036;2023-03-01T18:46:38;14.98;;;5.25;;
75718;SDS011;64340;48.534;-3.036;2023-03-01T18:49:05;14.82;;;5.38;;
75718;SDS011;64340;48.534;-3.036;2023-03-01T18:51:32;14.93;;;5.18;;
75718;SDS011;64340;48.534;-3.036;2023-03-01T18:54:02;14.60;;;4.72;;
75718;SDS011;64340;48.534;-3.036;2023-03-01T18:56:28;13.02;;;5.30;;
75718;SDS011;64340;48.534;-3.036;2023-03-01T18:58:54;13.20;;;4.50;;
75718;SDS011;64340;48.534;-3.036;2023-03-01T19:01:22;17.38;;;4.57;;
75718;SDS011;64340;48.534;-3.036;2023-03-01T19:03:49;14.65;;;4.72;;
75718;SDS011;64340;48.534;-3.036;2023-03-01T19:06:16;13.63;;;5.68;;
75718;SDS011;64340;48.534;-3.036;2023-03-01T19:08:43;10.85;;;4.22;;
75718;SDS011;64340;48.534;-3.036;2023-03-01T19:11:09;13.38;;;4.00;;
75718;SDS011;64340;48.534;-3.036;2023-03-01T19:13:36;9.50;;;3.92;;
75718;SDS011;64340;48.534;-3.036;2023-03-01T19:16:08;12.05;;;3.97;;
75718;SDS011;64340;48.534;-3.036;2023-03-01T19:18:40;12.77;;;4.13;;
75718;SDS011;64340;48.534;-3.036;2023-03-01T19:21:08;11.02;;;3.85;;
75718;SDS011;64340;48.534;-3.036;2023-03-01T19:23:35;14.05;;;4.47;;
75718;SDS011;64340;48.534;-3.036;2023-03-01T19:26:03;9.90;;;3.40;;
75718;SDS011;64340;48.534;-3.036;2023-03-01T19:28:31;8.50;;;3.25;;
75718;SDS011;64340;48.534;-3.036;2023-03-01T19:30:58;11.98;;;3.58;;
75718;SDS011;64340;48.534;-3.036;2023-03-01T19:33:29;7.10;;;2.60;;